Terminal Aerodrome Forecast
Issued by NWS Spokane, WA

Home | Current Version | Previous Version | Text Only | Print | Product List | Glossary On
Versions: 1 2 3 4 5 6 7 8 9 10 11 12 13 14
000
FTUS46 KOTX 010520
TAFGEG
TAF
KGEG 010520Z 0106/0206 02004KT P6SM FEW120
     FM012100 06008KT P6SM SCT070
     FM020300 06004KT P6SM SKC=

USA.gov is the U.S. government's official web portal to all federal, state and local government web resources and services.